createdAt,value
2019-02-24T00:01:51.675Z,-1.00
2019-02-24T00:04:24.523Z,-0.97
2019-02-24T00:06:57.460Z,-0.92
2019-02-24T00:09:30.344Z,-0.92
2019-02-24T00:12:03.255Z,-0.86
2019-02-24T00:14:36.207Z,-0.85
2019-02-24T00:17:09.026Z,-0.85
2019-02-24T00:19:41.890Z,-0.84
2019-02-24T00:22:14.806Z,-0.80
2019-02-24T00:24:47.703Z,-0.77
2019-02-24T00:27:20.550Z,-0.78
2019-02-24T00:29:53.579Z,-0.76
2019-02-24T00:32:26.357Z,-0.74
2019-02-24T00:35:02.197Z,-0.71
2019-02-24T00:37:35.071Z,-0.69
2019-02-24T00:40:07.986Z,-0.67
2019-02-24T00:42:40.921Z,-0.65
2019-02-24T00:45:13.776Z,-0.66
2019-02-24T00:47:46.627Z,-0.67
2019-02-24T00:50:19.350Z,-0.71
2019-02-24T00:52:52.191Z,-0.74
2019-02-24T00:55:24.957Z,-0.78
2019-02-24T00:57:57.790Z,-0.83
2019-02-24T01:00:30.536Z,-0.83
2019-02-24T01:03:03.384Z,-0.87
2019-02-24T01:05:36.426Z,-0.86
2019-02-24T01:08:09.292Z,-0.82
2019-02-24T01:10:42.099Z,-0.83
2019-02-24T01:13:14.918Z,-0.81
2019-02-24T01:15:47.965Z,-0.76
2019-02-24T01:18:20.906Z,-0.73
2019-02-24T01:20:53.687Z,-0.72
2019-02-24T01:23:27.059Z,-0.69
2019-02-24T01:25:59.770Z,-0.66
2019-02-24T01:28:32.637Z,-0.65
2019-02-24T01:31:05.494Z,-0.60
2019-02-24T01:33:38.354Z,-0.62
2019-02-24T01:36:11.475Z,-0.62
2019-02-24T01:38:44.336Z,-0.61
2019-02-24T01:41:17.079Z,-0.61
2019-02-24T01:43:49.809Z,-0.62
2019-02-24T01:46:22.806Z,-0.60
2019-02-24T01:48:55.567Z,-0.64
2019-02-24T01:51:28.359Z,-0.62
2019-02-24T01:54:01.172Z,-0.60
2019-02-24T01:56:34.048Z,-0.60
2019-02-24T01:59:06.941Z,-0.63
2019-02-24T02:01:39.742Z,-0.62
2019-02-24T02:04:12.525Z,-0.63
2019-02-24T02:06:45.430Z,-0.63
2019-02-24T02:09:18.375Z,-0.57
2019-02-24T02:11:52.044Z,-0.57
2019-02-24T02:14:24.799Z,-0.58
2019-02-24T02:16:57.580Z,-0.58
2019-02-24T02:19:30.430Z,-0.56
2019-02-24T02:22:03.329Z,-0.58
2019-02-24T02:24:36.214Z,-0.55
2019-02-24T02:27:09.124Z,-0.56
2019-02-24T02:29:42.033Z,-0.58
2019-02-24T02:32:14.858Z,-0.58
2019-02-24T02:34:47.777Z,-0.55
2019-02-24T02:37:20.551Z,-0.54
2019-02-24T02:39:53.597Z,-0.55
2019-02-24T02:42:26.577Z,-0.53
2019-02-24T02:44:59.360Z,-0.56
2019-02-24T02:47:32.203Z,-0.55
2019-02-24T02:50:05.217Z,-0.55
2019-02-24T02:52:38.064Z,-0.49
2019-02-24T02:55:11.076Z,-0.47
2019-02-24T02:57:43.933Z,-0.43
2019-02-24T03:00:33.834Z,-0.42
2019-02-24T03:03:06.536Z,-0.42
2019-02-24T03:05:40.957Z,-0.42
2019-02-24T03:08:15.265Z,-0.41
2019-02-24T03:10:48.094Z,-0.40
2019-02-24T03:13:20.937Z,-0.39
2019-02-24T03:15:53.718Z,-0.41
2019-02-24T03:18:28.263Z,-0.43
2019-02-24T03:21:01.132Z,-0.38
2019-02-24T03:23:34.119Z,-0.33
2019-02-24T03:26:06.929Z,-0.27
2019-02-24T03:28:39.787Z,-0.26
2019-02-24T03:31:12.558Z,-0.24
2019-02-24T03:33:45.409Z,-0.23
2019-02-24T03:36:18.164Z,-0.20
2019-02-24T03:38:51.008Z,-0.15
2019-02-24T03:41:23.860Z,-0.13
2019-02-24T03:43:56.747Z,-0.08
2019-02-24T03:46:29.492Z,-0.07
2019-02-24T03:49:02.298Z,-0.07
2019-02-24T03:51:35.249Z,-0.04
2019-02-24T03:54:10.600Z,-0.01
2019-02-24T03:56:43.297Z,0.01
2019-02-24T03:59:16.007Z,0.05
2019-02-24T04:01:48.702Z,0.03
2019-02-24T04:04:22.022Z,0.00
2019-02-24T04:06:54.710Z,0.05
2019-02-24T04:09:27.845Z,-0.03
2019-02-24T04:12:00.580Z,-0.04
2019-02-24T04:14:33.363Z,-0.05
2019-02-24T04:17:06.276Z,-0.10
2019-02-24T04:19:40.064Z,-0.10
2019-02-24T04:22:12.996Z,-0.10
2019-02-24T04:24:45.878Z,-0.15
2019-02-24T04:27:18.641Z,-0.14
2019-02-24T04:29:51.388Z,-0.13
2019-02-24T04:32:24.204Z,-0.16
2019-02-24T04:34:56.986Z,-0.15
2019-02-24T04:37:29.731Z,-0.16
2019-02-24T04:40:02.544Z,-0.14
2019-02-24T04:42:36.454Z,-0.20
2019-02-24T04:45:09.360Z,-0.15
2019-02-24T04:47:42.164Z,-0.14
2019-02-24T04:50:14.887Z,-0.15
2019-02-24T04:52:47.743Z,-0.15
2019-02-24T04:55:20.537Z,-0.13
2019-02-24T04:57:53.283Z,-0.11
2019-02-24T05:00:26.119Z,-0.11
2019-02-24T05:02:58.920Z,-0.09
2019-02-24T05:05:31.753Z,-0.07
2019-02-24T05:08:04.955Z,-0.05
2019-02-24T05:10:38.009Z,-0.09
2019-02-24T05:13:10.929Z,-0.13
2019-02-24T05:15:43.827Z,-0.11
2019-02-24T05:18:16.588Z,-0.10
2019-02-24T05:20:49.359Z,-0.13
2019-02-24T05:23:22.092Z,-0.15
2019-02-24T05:25:54.935Z,-0.12
2019-02-24T05:28:27.668Z,-0.11
2019-02-24T05:31:00.404Z,-0.09
2019-02-24T05:33:33.179Z,-0.11
2019-02-24T05:36:06.052Z,-0.11
2019-02-24T05:38:38.816Z,-0.11
2019-02-24T05:41:11.661Z,-0.08
2019-02-24T05:43:44.405Z,-0.08
2019-02-24T05:46:17.192Z,-0.05
2019-02-24T05:48:49.974Z,-0.04
2019-02-24T05:51:26.917Z,-0.03
2019-02-24T05:54:01.186Z,-0.02
2019-02-24T05:56:35.525Z,-0.05
2019-02-24T05:59:08.306Z,-0.01
2019-02-24T06:01:41.149Z,-0.02
2019-02-24T06:04:13.840Z,-0.01
2019-02-24T06:06:46.723Z,-0.01
2019-02-24T06:09:19.599Z,-0.01
2019-02-24T06:11:52.382Z,0.00
2019-02-24T06:14:25.245Z,0.03
2019-02-24T06:16:58.056Z,0.08
2019-02-24T06:19:30.728Z,0.08
2019-02-24T06:22:03.506Z,0.08
2019-02-24T06:24:36.360Z,0.10
2019-02-24T06:27:09.141Z,0.09
2019-02-24T06:29:41.969Z,0.10
2019-02-24T06:32:14.716Z,0.13
2019-02-24T06:34:47.493Z,0.13
2019-02-24T06:37:20.233Z,0.12
2019-02-24T06:39:52.946Z,0.14
2019-02-24T06:42:25.650Z,0.18
2019-02-24T06:44:58.418Z,0.20
2019-02-24T06:47:31.141Z,0.25
2019-02-24T06:50:04.008Z,0.25
2019-02-24T06:52:36.815Z,0.25
2019-02-24T06:55:09.698Z,0.25
2019-02-24T06:57:42.504Z,0.26
2019-02-24T07:00:15.262Z,0.27
2019-02-24T07:02:48.175Z,0.29
2019-02-24T07:05:21.171Z,0.31
2019-02-24T07:07:54.067Z,0.35
2019-02-24T07:10:29.239Z,0.39
2019-02-24T07:13:08.757Z,0.44
2019-02-24T07:15:42.631Z,0.45
2019-02-24T07:18:18.359Z,0.50
2019-02-24T07:20:51.150Z,0.56
2019-02-24T07:23:23.919Z,0.65
2019-02-24T07:25:56.660Z,0.70
2019-02-24T07:28:29.528Z,0.74
2019-02-24T07:31:02.327Z,0.82
2019-02-24T07:33:41.026Z,0.88
2019-02-24T07:36:18.926Z,0.97
2019-02-24T07:38:51.736Z,1.06
2019-02-24T07:41:24.596Z,1.05
2019-02-24T07:43:57.420Z,1.09
2019-02-24T07:46:31.266Z,1.10
2019-02-24T07:49:04.173Z,1.13
2019-02-24T07:51:37.244Z,1.11
2019-02-24T07:54:10.167Z,1.13
2019-02-24T07:56:43.040Z,1.14
2019-02-24T07:59:15.831Z,1.17
2019-02-24T08:01:49.005Z,1.23
2019-02-24T08:04:21.880Z,1.24
2019-02-24T08:06:54.834Z,1.27
2019-02-24T08:09:27.954Z,1.31
2019-02-24T08:12:00.951Z,1.33
2019-02-24T08:14:33.813Z,1.39
2019-02-24T08:17:06.608Z,1.44
2019-02-24T08:19:39.538Z,1.51
2019-02-24T08:22:13.050Z,1.59
2019-02-24T08:24:47.087Z,1.64
2019-02-24T08:27:22.809Z,1.69
2019-02-24T08:29:55.910Z,1.72
2019-02-24T08:32:30.482Z,1.78
2019-02-24T08:35:03.314Z,1.79
2019-02-24T08:37:36.224Z,1.81
2019-02-24T08:40:09.826Z,1.82
2019-02-24T08:42:42.751Z,1.82
2019-02-24T08:45:15.591Z,1.82
2019-02-24T08:47:48.627Z,1.83
2019-02-24T08:50:21.482Z,1.86
2019-02-24T08:52:54.627Z,1.95
2019-02-24T08:55:27.728Z,2.22
2019-02-24T08:58:00.610Z,2.88
2019-02-24T09:00:33.599Z,3.83
2019-02-24T09:03:06.732Z,4.62
2019-02-24T09:05:41.123Z,5.57
2019-02-24T09:08:17.188Z,6.05
2019-02-24T09:10:51.605Z,6.59
2019-02-24T09:13:37.875Z,7.12
2019-02-24T09:16:13.726Z,7.46
2019-02-24T09:18:46.871Z,7.80
2019-02-24T09:21:27.250Z,8.06
2019-02-24T09:24:00.070Z,8.05
2019-02-24T09:26:33.110Z,7.80
2019-02-24T09:29:09.185Z,7.96
2019-02-24T09:31:45.315Z,7.90
2019-02-24T09:34:18.067Z,7.60
2019-02-24T09:36:51.527Z,7.62
2019-02-24T09:39:24.511Z,7.94
2019-02-24T09:42:08.970Z,7.94
2019-02-24T09:44:41.755Z,7.95
2019-02-24T09:47:14.645Z,8.16
2019-02-24T09:49:47.460Z,8.20
2019-02-24T09:52:20.397Z,8.37
2019-02-24T09:54:53.236Z,8.22
2019-02-24T09:57:26.203Z,7.91
2019-02-24T09:59:59.078Z,7.85
2019-02-24T10:02:33.158Z,7.75
2019-02-24T10:05:06.809Z,7.44
2019-02-24T10:07:40.212Z,7.45
2019-02-24T10:10:13.284Z,7.24
2019-02-24T10:12:46.081Z,7.15
2019-02-24T10:15:18.909Z,7.15
2019-02-24T10:17:54.802Z,6.88
2019-02-24T10:20:27.812Z,6.88
2019-02-24T10:23:00.770Z,6.61
2019-02-24T10:25:33.669Z,6.34
2019-02-24T10:28:06.504Z,6.29
2019-02-24T10:30:39.368Z,6.09
2019-02-24T10:33:12.320Z,6.01
2019-02-24T10:35:45.234Z,6.09
2019-02-24T10:38:18.279Z,6.69
2019-02-24T10:40:51.104Z,8.38
2019-02-24T10:43:24.185Z,8.38
2019-02-24T10:45:57.408Z,8.70
2019-02-24T10:48:30.190Z,9.78
2019-02-24T10:51:03.309Z,9.78
2019-02-24T10:53:36.249Z,9.94
2019-02-24T10:56:09.362Z,9.94
2019-02-24T10:58:42.193Z,10.03
2019-02-24T11:01:15.130Z,9.60
2019-02-24T11:03:48.130Z,9.07
2019-02-24T11:06:20.957Z,8.65
2019-02-24T11:08:53.856Z,8.07
2019-02-24T11:11:26.751Z,8.07
2019-02-24T11:13:59.532Z,7.99
2019-02-24T11:16:32.319Z,7.78
2019-02-24T11:19:05.156Z,7.78
2019-02-24T11:21:38.011Z,7.70
2019-02-24T11:24:10.866Z,7.72
2019-02-24T11:26:43.721Z,7.76
2019-02-24T11:29:16.756Z,7.90
2019-02-24T11:31:50.746Z,8.39
2019-02-24T11:34:24.780Z,8.95
2019-02-24T11:36:57.570Z,9.43
2019-02-24T11:39:30.501Z,10.21
2019-02-24T11:42:03.546Z,10.21
2019-02-24T11:44:36.607Z,10.20
2019-02-24T11:47:09.550Z,10.54
2019-02-24T11:49:42.319Z,10.86
2019-02-24T11:52:15.372Z,10.50
2019-02-24T11:54:50.043Z,10.64
2019-02-24T11:57:22.908Z,10.75
2019-02-24T11:59:56.298Z,10.60
2019-02-24T12:02:34.464Z,10.28
2019-02-24T12:05:05.751Z,10.08
2019-02-24T12:07:42.565Z,9.91
2019-02-24T12:10:16.517Z,9.63
2019-02-24T12:12:49.486Z,9.43
2019-02-24T12:15:22.581Z,9.26
2019-02-24T12:17:56.061Z,9.13
2019-02-24T12:20:28.986Z,8.93
2019-02-24T12:23:01.993Z,8.78
2019-02-24T12:25:34.907Z,8.60
2019-02-24T12:28:07.802Z,8.53
2019-02-24T12:30:40.744Z,8.59
2019-02-24T12:33:13.406Z,8.65
2019-02-24T12:35:48.158Z,8.69
2019-02-24T12:38:22.364Z,8.67
2019-02-24T12:40:55.574Z,8.69
2019-02-24T12:43:28.458Z,8.68
2019-02-24T12:46:03.846Z,8.69
2019-02-24T12:48:36.645Z,8.72
2019-02-24T12:51:09.520Z,8.57
2019-02-24T12:53:42.324Z,8.46
2019-02-24T12:56:15.077Z,8.35
2019-02-24T12:58:48.148Z,8.24
2019-02-24T13:01:21.049Z,8.20
2019-02-24T13:03:54.066Z,8.15
2019-02-24T13:06:26.833Z,8.19
2019-02-24T13:08:59.910Z,8.34
2019-02-24T13:11:32.895Z,8.46
2019-02-24T13:14:05.947Z,8.46
2019-02-24T13:16:38.793Z,8.58
2019-02-24T13:19:11.643Z,8.78
2019-02-24T13:21:44.391Z,8.82
2019-02-24T13:24:18.958Z,8.82
2019-02-24T13:26:51.888Z,8.82
2019-02-24T13:29:24.807Z,8.77
2019-02-24T13:31:57.768Z,8.74
2019-02-24T13:34:31.703Z,8.73
2019-02-24T13:37:04.591Z,8.70
2019-02-24T13:39:37.483Z,8.71
2019-02-24T13:42:11.100Z,8.71
2019-02-24T13:44:44.006Z,8.80
2019-02-24T13:47:16.791Z,8.92
2019-02-24T13:49:49.548Z,9.36
2019-02-24T13:52:22.266Z,9.36
2019-02-24T13:54:55.049Z,9.94
2019-02-24T13:57:28.203Z,9.99
2019-02-24T14:00:00.952Z,10.12
2019-02-24T14:02:35.404Z,10.16
2019-02-24T14:05:08.185Z,10.22
2019-02-24T14:07:40.991Z,10.19
2019-02-24T14:10:14.134Z,10.18
2019-02-24T14:12:47.222Z,10.22
2019-02-24T14:15:20.163Z,10.59
2019-02-24T14:17:53.007Z,10.98
2019-02-24T14:20:25.746Z,11.26
2019-02-24T14:22:58.653Z,11.31
2019-02-24T14:25:31.458Z,11.19
2019-02-24T14:28:04.272Z,11.11
2019-02-24T14:30:36.972Z,11.02
2019-02-24T14:33:11.143Z,10.93
2019-02-24T14:35:43.868Z,10.75
2019-02-24T14:38:16.812Z,10.42
2019-02-24T14:40:49.669Z,10.21
2019-02-24T14:43:22.493Z,10.12
2019-02-24T14:45:56.184Z,10.05
2019-02-24T14:48:29.104Z,10.00
2019-02-24T14:51:01.988Z,9.90
2019-02-24T14:53:37.094Z,9.79
2019-02-24T14:56:09.974Z,9.69
2019-02-24T14:58:42.852Z,9.66
2019-02-24T15:01:16.098Z,9.58
2019-02-24T15:03:48.988Z,9.60
2019-02-24T15:06:21.779Z,9.56
2019-02-24T15:08:54.535Z,9.52
2019-02-24T15:11:30.056Z,9.54
2019-02-24T15:14:02.933Z,9.54
2019-02-24T15:16:35.767Z,9.48
2019-02-24T15:19:08.588Z,9.40
2019-02-24T15:21:41.424Z,9.43
2019-02-24T15:24:15.259Z,9.38
2019-02-24T15:26:48.049Z,9.34
2019-02-24T15:29:21.908Z,9.26
2019-02-24T15:31:54.637Z,9.23
2019-02-24T15:34:27.384Z,9.17
2019-02-24T15:37:00.301Z,9.21
2019-02-24T15:39:33.321Z,9.13
2019-02-24T15:42:06.405Z,9.05
2019-02-24T15:44:40.978Z,8.97
2019-02-24T15:47:13.987Z,8.90
2019-02-24T15:49:47.624Z,8.80
2019-02-24T15:52:20.631Z,8.80
2019-02-24T15:55:00.028Z,8.70
2019-02-24T15:57:33.174Z,8.58
2019-02-24T16:00:08.985Z,8.58
2019-02-24T16:02:42.505Z,8.47
2019-02-24T16:05:15.547Z,8.35
2019-02-24T16:07:50.733Z,8.20
2019-02-24T16:10:23.832Z,7.90
2019-02-24T16:12:56.964Z,7.90
2019-02-24T16:15:32.718Z,7.84
2019-02-24T16:18:05.970Z,7.74
2019-02-24T16:20:39.056Z,7.63
2019-02-24T16:23:12.200Z,7.54
2019-02-24T16:25:45.065Z,7.44
2019-02-24T16:28:17.868Z,7.35
2019-02-24T16:30:50.607Z,7.24
2019-02-24T16:33:23.681Z,7.16
2019-02-24T16:35:56.813Z,7.07
2019-02-24T16:38:29.585Z,6.96
2019-02-24T16:41:02.329Z,6.85
2019-02-24T16:43:35.305Z,6.78
2019-02-24T16:46:08.254Z,6.68
2019-02-24T16:48:41.012Z,6.63
2019-02-24T16:51:13.793Z,6.56
2019-02-24T16:53:46.679Z,6.50
2019-02-24T16:56:19.400Z,6.41
2019-02-24T16:58:52.358Z,6.34
2019-02-24T17:01:25.188Z,6.22
2019-02-24T17:03:58.224Z,6.06
2019-02-24T17:06:31.164Z,5.93
2019-02-24T17:09:04.517Z,5.80
2019-02-24T17:11:39.017Z,5.70
2019-02-24T17:14:11.846Z,5.60
2019-02-24T17:16:44.754Z,5.47
2019-02-24T17:19:17.600Z,5.39
2019-02-24T17:21:50.442Z,5.29
2019-02-24T17:24:25.026Z,5.20
2019-02-24T17:26:58.140Z,5.10
2019-02-24T17:29:31.335Z,5.02
2019-02-24T17:32:07.756Z,4.98
2019-02-24T17:34:41.486Z,4.96
2019-02-24T17:37:19.985Z,4.89
2019-02-24T17:39:49.050Z,4.82
2019-02-24T17:42:22.027Z,4.75
2019-02-24T17:44:55.065Z,4.70
2019-02-24T17:47:29.166Z,4.66
2019-02-24T17:50:02.113Z,4.64
2019-02-24T17:52:35.210Z,4.65
2019-02-24T17:55:10.038Z,4.64
2019-02-24T17:57:43.916Z,4.66
2019-02-24T18:00:24.243Z,4.68
2019-02-24T18:02:57.889Z,4.65
2019-02-24T18:05:31.046Z,4.65
2019-02-24T18:08:06.850Z,4.67
2019-02-24T18:10:39.950Z,4.64
2019-02-24T18:13:12.894Z,4.62
2019-02-24T18:15:45.670Z,4.55
2019-02-24T18:18:18.481Z,4.52
2019-02-24T18:20:51.399Z,4.51
2019-02-24T18:23:24.478Z,4.46
2019-02-24T18:25:57.273Z,4.39
2019-02-24T18:28:30.586Z,4.32
2019-02-24T18:31:03.607Z,4.28
2019-02-24T18:33:36.778Z,4.31
2019-02-24T18:36:09.646Z,4.33
2019-02-24T18:38:42.339Z,4.38
2019-02-24T18:41:15.714Z,4.42
2019-02-24T18:43:48.531Z,4.42
2019-02-24T18:46:21.478Z,4.39
2019-02-24T18:48:54.486Z,4.36
2019-02-24T18:51:27.406Z,4.31
2019-02-24T18:54:00.599Z,4.20
2019-02-24T18:56:33.561Z,4.10
2019-02-24T18:59:06.533Z,3.99
2019-02-24T19:01:39.515Z,3.95
2019-02-24T19:04:12.326Z,4.00
2019-02-24T19:06:45.155Z,3.99
2019-02-24T19:09:18.215Z,3.99
2019-02-24T19:11:51.175Z,3.99
2019-02-24T19:14:24.133Z,4.00
2019-02-24T19:16:57.312Z,3.97
2019-02-24T19:19:30.327Z,3.93
2019-02-24T19:22:03.156Z,3.90
2019-02-24T19:24:37.295Z,3.86
2019-02-24T19:27:10.258Z,3.83
2019-02-24T19:29:43.208Z,3.76
2019-02-24T19:32:16.182Z,3.76
2019-02-24T19:34:50.126Z,3.76
2019-02-24T19:37:22.959Z,3.70
2019-02-24T19:39:55.899Z,3.70
2019-02-24T19:42:28.751Z,3.67
2019-02-24T19:45:02.779Z,3.71
2019-02-24T19:47:35.755Z,3.76
2019-02-24T19:50:14.238Z,3.78
2019-02-24T19:52:47.275Z,3.78
2019-02-24T19:55:20.313Z,3.77
2019-02-24T19:57:53.225Z,3.75
2019-02-24T20:00:26.929Z,3.75
2019-02-24T20:03:02.956Z,3.72
2019-02-24T20:05:37.825Z,3.69
2019-02-24T20:08:13.006Z,3.66
2019-02-24T20:10:54.088Z,3.63
2019-02-24T20:13:41.058Z,3.57
2019-02-24T20:16:15.433Z,3.53
2019-02-24T20:18:51.109Z,3.49
2019-02-24T20:21:24.535Z,3.45
2019-02-24T20:24:03.325Z,3.40
2019-02-24T20:26:36.404Z,3.35
2019-02-24T20:29:10.504Z,3.31
2019-02-24T20:31:43.609Z,3.32
2019-02-24T20:34:24.957Z,3.32
2019-02-24T20:36:51.078Z,3.33
2019-02-24T20:39:24.065Z,3.29
2019-02-24T20:41:57.127Z,3.28
2019-02-24T20:44:30.013Z,3.27
2019-02-24T20:47:02.765Z,3.27
2019-02-24T20:49:35.713Z,3.27
2019-02-24T20:52:08.670Z,3.28
2019-02-24T20:54:41.563Z,3.31
2019-02-24T20:57:14.589Z,3.27
2019-02-24T20:59:47.365Z,3.26
2019-02-24T21:02:20.255Z,3.25
2019-02-24T21:04:53.242Z,3.21
2019-02-24T21:07:26.129Z,3.18
2019-02-24T21:09:59.041Z,3.11
2019-02-24T21:12:31.788Z,3.08
2019-02-24T21:15:04.678Z,3.06
2019-02-24T21:17:37.531Z,3.05
2019-02-24T21:20:14.283Z,3.04
2019-02-24T21:22:47.061Z,3.04
2019-02-24T21:25:19.819Z,3.03
2019-02-24T21:27:53.006Z,3.02
2019-02-24T21:30:25.908Z,2.99
2019-02-24T21:32:58.708Z,2.95
2019-02-24T21:35:31.787Z,2.90
2019-02-24T21:38:04.884Z,2.88
2019-02-24T21:40:37.789Z,2.86
2019-02-24T21:43:10.650Z,2.85
2019-02-24T21:45:43.508Z,2.85
2019-02-24T21:48:16.397Z,2.84
2019-02-24T21:50:49.271Z,2.83
2019-02-24T21:53:22.020Z,2.80
2019-02-24T21:55:54.881Z,2.82
2019-02-24T21:58:28.059Z,2.81
2019-02-24T22:01:01.023Z,2.79
2019-02-24T22:03:35.003Z,2.77
2019-02-24T22:06:07.995Z,2.74
2019-02-24T22:08:40.864Z,2.72
2019-02-24T22:11:13.705Z,2.72
2019-02-24T22:13:46.398Z,2.72
2019-02-24T22:16:20.275Z,2.72
2019-02-24T22:18:53.074Z,2.70
2019-02-24T22:21:25.857Z,2.71
2019-02-24T22:23:58.704Z,2.68
2019-02-24T22:26:31.449Z,2.69
2019-02-24T22:29:05.151Z,2.67
2019-02-24T22:31:37.955Z,2.66
2019-02-24T22:34:10.797Z,2.70
2019-02-24T22:36:43.512Z,2.71
2019-02-24T22:39:16.245Z,2.75
2019-02-24T22:41:48.910Z,2.74
2019-02-24T22:44:21.700Z,2.77
2019-02-24T22:46:54.396Z,2.77
2019-02-24T22:49:27.218Z,2.72
2019-02-24T22:52:00.010Z,2.71
2019-02-24T22:54:32.791Z,2.68
2019-02-24T22:57:05.542Z,2.63
2019-02-24T22:59:38.341Z,2.60
2019-02-24T23:02:11.287Z,2.57
2019-02-24T23:04:44.618Z,2.52
2019-02-24T23:07:17.491Z,2.47
2019-02-24T23:09:50.256Z,2.44
2019-02-24T23:12:22.998Z,2.39
2019-02-24T23:14:57.292Z,2.37
2019-02-24T23:17:30.012Z,2.35
2019-02-24T23:20:02.823Z,2.27
2019-02-24T23:22:37.301Z,2.24
2019-02-24T23:25:10.110Z,2.25
2019-02-24T23:27:44.037Z,2.27
2019-02-24T23:30:17.160Z,2.26
2019-02-24T23:32:49.979Z,2.26
2019-02-24T23:35:22.724Z,2.25
2019-02-24T23:37:55.443Z,2.25
2019-02-24T23:40:28.297Z,2.21
2019-02-24T23:43:02.126Z,2.18
2019-02-24T23:45:34.932Z,2.17
2019-02-24T23:48:07.790Z,2.13
2019-02-24T23:50:40.541Z,2.12
2019-02-24T23:53:13.370Z,2.13
2019-02-24T23:55:46.144Z,2.15
2019-02-24T23:58:18.862Z,2.14
